createdAt,value
2017-01-13T00:00:55.707Z,0
2017-01-13T00:02:06.423Z,0
2017-01-13T00:03:17.125Z,0
2017-01-13T00:04:27.869Z,0
2017-01-13T00:05:38.618Z,0
2017-01-13T00:06:49.364Z,0
2017-01-13T00:08:00.128Z,0
2017-01-13T00:09:10.858Z,0
2017-01-13T00:10:21.599Z,0
2017-01-13T00:11:32.323Z,0
2017-01-13T00:12:43.044Z,0
2017-01-13T00:13:53.762Z,0
2017-01-13T00:15:04.508Z,0
2017-01-13T00:16:15.226Z,0
2017-01-13T00:17:25.953Z,0
2017-01-13T00:18:36.671Z,0
2017-01-13T00:19:47.392Z,0
2017-01-13T00:20:58.118Z,0
2017-01-13T00:22:08.863Z,0
2017-01-13T00:23:19.580Z,0
2017-01-13T00:24:30.297Z,0
2017-01-13T00:25:41.022Z,0
2017-01-13T00:26:51.746Z,0
2017-01-13T00:28:02.441Z,0
2017-01-13T00:29:13.544Z,0
2017-01-13T00:30:24.285Z,0
2017-01-13T00:31:35.011Z,0
2017-01-13T00:32:45.723Z,0
2017-01-13T00:33:56.423Z,0
2017-01-13T00:35:07.149Z,0
2017-01-13T00:36:17.866Z,0
2017-01-13T00:37:28.606Z,0
2017-01-13T00:38:39.305Z,0
2017-01-13T00:39:50.051Z,0
2017-01-13T00:41:00.770Z,0
2017-01-13T00:42:11.495Z,0
2017-01-13T00:43:22.212Z,0
2017-01-13T00:44:32.935Z,0
2017-01-13T00:45:43.661Z,0
2017-01-13T00:46:54.406Z,0
2017-01-13T00:48:05.120Z,0
2017-01-13T00:49:15.820Z,0
2017-01-13T00:50:26.562Z,0
2017-01-13T00:51:37.288Z,0
2017-01-13T00:52:48.025Z,0
2017-01-13T00:53:58.747Z,0
2017-01-13T00:55:09.471Z,0
2017-01-13T00:56:20.195Z,0
2017-01-13T00:57:30.913Z,0
2017-01-13T00:58:41.637Z,0
2017-01-13T00:59:52.377Z,0
2017-01-13T01:01:03.094Z,0
2017-01-13T01:02:13.822Z,0
2017-01-13T01:03:24.523Z,0
2017-01-13T01:04:35.264Z,0
2017-01-13T01:05:46.006Z,0
2017-01-13T01:06:56.735Z,0
2017-01-13T01:08:07.482Z,0
2017-01-13T01:09:18.202Z,0
2017-01-13T01:10:28.937Z,0
2017-01-13T01:11:39.666Z,0
2017-01-13T01:12:50.389Z,0
2017-01-13T01:14:01.132Z,0
2017-01-13T01:15:11.853Z,0
2017-01-13T01:16:22.578Z,0
2017-01-13T01:17:33.325Z,0
2017-01-13T01:18:44.069Z,0
2017-01-13T01:19:54.792Z,0
2017-01-13T01:21:05.537Z,0
2017-01-13T01:22:16.258Z,0
2017-01-13T01:23:27.008Z,0
2017-01-13T01:24:37.752Z,0
2017-01-13T01:25:48.470Z,0
2017-01-13T01:26:59.215Z,0
2017-01-13T01:28:09.963Z,0
2017-01-13T01:29:20.697Z,0
2017-01-13T01:30:31.406Z,0
2017-01-13T01:31:42.104Z,0
2017-01-13T01:32:52.818Z,0
2017-01-13T01:34:03.514Z,0
2017-01-13T01:35:14.228Z,0
2017-01-13T01:36:24.977Z,0
2017-01-13T01:37:35.706Z,0
2017-01-13T01:38:46.424Z,0
2017-01-13T01:39:57.144Z,0
2017-01-13T01:41:07.890Z,0
2017-01-13T01:42:18.614Z,0
2017-01-13T01:43:29.365Z,0
2017-01-13T01:44:40.103Z,0
2017-01-13T01:45:50.825Z,0
2017-01-13T01:47:01.549Z,0
2017-01-13T01:48:12.291Z,0
2017-01-13T01:49:23.015Z,0
2017-01-13T01:50:33.751Z,0
2017-01-13T01:51:44.504Z,0
2017-01-13T01:52:55.221Z,0
2017-01-13T01:54:05.924Z,0
2017-01-13T01:55:16.634Z,0
2017-01-13T01:56:27.341Z,0
2017-01-13T01:57:38.059Z,0
2017-01-13T01:58:48.780Z,0
2017-01-13T01:59:59.530Z,0
2017-01-13T02:01:10.251Z,0
2017-01-13T02:02:20.993Z,0
2017-01-13T02:03:31.714Z,0
2017-01-13T02:04:42.431Z,0
2017-01-13T02:05:53.159Z,0
2017-01-13T02:07:03.902Z,0
2017-01-13T02:08:14.615Z,0
2017-01-13T02:09:25.351Z,0
2017-01-13T02:10:36.100Z,0
2017-01-13T02:11:46.839Z,0
2017-01-13T02:12:57.560Z,0
2017-01-13T02:14:08.278Z,0
2017-01-13T02:15:19.000Z,0
2017-01-13T02:16:29.716Z,0
2017-01-13T02:17:40.441Z,0
2017-01-13T02:18:51.215Z,0
2017-01-13T02:20:01.933Z,0
2017-01-13T02:21:12.646Z,0
2017-01-13T02:22:23.350Z,0
2017-01-13T02:23:34.051Z,0
2017-01-13T02:24:45.171Z,0
2017-01-13T02:25:55.895Z,0
2017-01-13T02:27:07.014Z,0
2017-01-13T02:28:17.733Z,0
2017-01-13T02:29:28.479Z,0
2017-01-13T02:30:39.200Z,0
2017-01-13T02:31:49.896Z,0
2017-01-13T02:33:00.589Z,0
2017-01-13T02:34:11.311Z,0
2017-01-13T02:35:22.034Z,0
2017-01-13T02:36:32.751Z,0
2017-01-13T02:37:43.472Z,0
2017-01-13T02:38:54.199Z,0
2017-01-13T02:40:04.918Z,0
2017-01-13T02:41:15.664Z,0
2017-01-13T02:42:26.381Z,0
2017-01-13T02:43:37.123Z,0
2017-01-13T02:44:47.849Z,0
2017-01-13T02:45:58.552Z,0
2017-01-13T02:47:09.657Z,0
2017-01-13T02:48:20.387Z,0
2017-01-13T02:49:31.111Z,0
2017-01-13T02:50:42.187Z,0
2017-01-13T02:51:53.178Z,0
2017-01-13T02:53:04.004Z,0
2017-01-13T02:54:14.738Z,0
2017-01-13T02:55:25.444Z,0
2017-01-13T02:56:36.167Z,0
2017-01-13T02:57:46.897Z,0
2017-01-13T02:58:58.000Z,0
2017-01-13T03:00:08.713Z,0
2017-01-13T03:01:19.420Z,0
2017-01-13T03:02:30.145Z,0
2017-01-13T03:03:40.859Z,0
2017-01-13T03:04:51.572Z,0
2017-01-13T03:06:02.276Z,0
2017-01-13T03:07:12.978Z,0
2017-01-13T03:08:23.746Z,0
2017-01-13T03:09:34.497Z,0
2017-01-13T03:10:45.612Z,0
2017-01-13T03:11:56.323Z,0
2017-01-13T03:13:07.031Z,0
2017-01-13T03:14:17.773Z,0
2017-01-13T03:15:28.495Z,0
2017-01-13T03:16:39.216Z,0
2017-01-13T03:17:49.936Z,0
2017-01-13T03:19:00.685Z,0
2017-01-13T03:20:11.406Z,0
2017-01-13T03:21:22.149Z,0
2017-01-13T03:22:32.851Z,0
2017-01-13T03:23:43.583Z,0
2017-01-13T03:24:54.316Z,0
2017-01-13T03:26:05.037Z,0
2017-01-13T03:27:15.754Z,0
2017-01-13T03:28:26.503Z,0
2017-01-13T03:29:37.246Z,0
2017-01-13T03:30:47.973Z,0
2017-01-13T03:31:58.716Z,0
2017-01-13T03:33:09.462Z,0
2017-01-13T03:34:20.183Z,0
2017-01-13T03:35:30.922Z,0
2017-01-13T03:36:41.631Z,0
2017-01-13T03:37:52.353Z,0
2017-01-13T03:39:03.093Z,0
2017-01-13T03:40:13.835Z,0
2017-01-13T03:41:24.555Z,0
2017-01-13T03:42:35.652Z,0
2017-01-13T03:43:46.365Z,0
2017-01-13T03:44:57.094Z,0
2017-01-13T03:46:07.795Z,0
2017-01-13T03:47:18.536Z,0
2017-01-13T03:48:29.232Z,0
2017-01-13T03:49:39.946Z,0
2017-01-13T03:50:50.652Z,0
2017-01-13T03:52:01.370Z,0
2017-01-13T03:53:12.075Z,0
2017-01-13T03:54:22.811Z,0
2017-01-13T03:55:33.533Z,0
2017-01-13T03:56:44.257Z,0
2017-01-13T03:57:54.983Z,0
2017-01-13T03:59:05.725Z,0
2017-01-13T04:00:16.448Z,0
2017-01-13T04:01:27.166Z,0
2017-01-13T04:02:37.891Z,0
2017-01-13T04:03:48.608Z,0
2017-01-13T04:04:59.353Z,0
2017-01-13T04:06:10.050Z,0
2017-01-13T04:07:20.788Z,0
2017-01-13T04:08:31.514Z,0
2017-01-13T04:09:42.215Z,0
2017-01-13T04:10:52.923Z,0
2017-01-13T04:12:03.652Z,0
2017-01-13T04:13:14.375Z,0
2017-01-13T04:14:25.122Z,0
2017-01-13T04:15:35.842Z,0
2017-01-13T04:16:46.540Z,0
2017-01-13T04:17:57.254Z,0
2017-01-13T04:19:07.980Z,0
2017-01-13T04:20:18.702Z,0
2017-01-13T04:21:29.441Z,0
2017-01-13T04:22:40.140Z,0
2017-01-13T04:23:50.878Z,0
2017-01-13T04:25:01.607Z,0
2017-01-13T04:26:12.307Z,0
2017-01-13T04:27:23.003Z,0
2017-01-13T04:28:33.727Z,0
2017-01-13T04:29:44.491Z,0
2017-01-13T04:30:55.216Z,0
2017-01-13T04:32:05.941Z,0
2017-01-13T04:33:16.679Z,0
2017-01-13T04:34:27.378Z,0
2017-01-13T04:35:38.121Z,0
2017-01-13T04:36:48.819Z,0
2017-01-13T04:37:59.919Z,0
2017-01-13T04:39:10.639Z,0
2017-01-13T04:40:21.351Z,0
2017-01-13T04:41:32.453Z,0
2017-01-13T04:42:43.175Z,0
2017-01-13T04:43:53.893Z,0
2017-01-13T04:45:04.614Z,0
2017-01-13T04:46:15.339Z,0
2017-01-13T04:47:26.095Z,0
2017-01-13T04:48:36.808Z,0
2017-01-13T04:49:47.526Z,0
2017-01-13T04:50:58.270Z,0
2017-01-13T04:52:08.969Z,0
2017-01-13T04:53:19.711Z,0
2017-01-13T04:54:30.432Z,0
2017-01-13T04:55:41.130Z,0
2017-01-13T04:56:51.852Z,0
2017-01-13T04:58:02.601Z,0
2017-01-13T04:59:13.333Z,0
2017-01-13T05:00:24.090Z,0
2017-01-13T05:01:34.835Z,0
2017-01-13T05:02:45.553Z,0
2017-01-13T05:03:56.274Z,0
2017-01-13T05:05:06.994Z,0
2017-01-13T05:06:17.719Z,0
2017-01-13T05:07:28.442Z,0
2017-01-13T05:08:39.161Z,0
2017-01-13T05:09:49.907Z,0
2017-01-13T05:11:00.627Z,0
2017-01-13T05:12:11.349Z,0
2017-01-13T05:13:22.094Z,0
2017-01-13T05:14:32.811Z,0
2017-01-13T05:15:43.535Z,0
2017-01-13T05:16:54.253Z,0
2017-01-13T05:18:04.970Z,0
2017-01-13T05:19:15.674Z,0
2017-01-13T05:20:26.391Z,0
2017-01-13T05:21:37.115Z,0
2017-01-13T05:22:47.862Z,0
2017-01-13T05:23:58.608Z,0
2017-01-13T05:25:09.330Z,0
2017-01-13T05:26:20.021Z,0
2017-01-13T05:27:30.744Z,0
2017-01-13T05:28:41.446Z,0
2017-01-13T05:29:52.158Z,0
2017-01-13T05:31:02.882Z,0
2017-01-13T05:32:13.600Z,0
2017-01-13T05:33:24.324Z,0
2017-01-13T05:34:35.041Z,0
2017-01-13T05:35:45.767Z,0
2017-01-13T05:36:56.489Z,0
2017-01-13T05:38:07.184Z,0
2017-01-13T05:39:17.901Z,0
2017-01-13T05:40:28.621Z,0
2017-01-13T05:41:39.347Z,0
2017-01-13T05:42:50.069Z,0
2017-01-13T05:44:00.827Z,0
2017-01-13T05:45:11.560Z,0
2017-01-13T05:46:22.280Z,0
2017-01-13T05:47:33.022Z,0
2017-01-13T05:48:43.750Z,0
2017-01-13T05:49:54.514Z,0
2017-01-13T05:51:05.227Z,0
2017-01-13T05:52:15.962Z,0
2017-01-13T05:53:26.732Z,0
2017-01-13T05:54:37.457Z,0
2017-01-13T05:55:48.200Z,0
2017-01-13T05:56:58.925Z,0
2017-01-13T05:58:10.036Z,0
2017-01-13T05:59:20.811Z,0
2017-01-13T06:00:31.537Z,0
2017-01-13T06:01:42.275Z,0
2017-01-13T06:02:52.990Z,0
2017-01-13T06:04:03.694Z,0
2017-01-13T06:05:14.416Z,0
2017-01-13T06:06:25.158Z,0
2017-01-13T06:07:35.908Z,0
2017-01-13T06:08:46.625Z,0
2017-01-13T06:09:57.346Z,0
2017-01-13T06:11:08.088Z,0
2017-01-13T06:12:18.813Z,0
2017-01-13T06:13:29.538Z,0
2017-01-13T06:14:40.258Z,0
2017-01-13T06:15:50.980Z,0
2017-01-13T06:17:01.726Z,0
2017-01-13T06:18:12.497Z,0
2017-01-13T06:19:23.619Z,0
2017-01-13T06:20:34.339Z,0
2017-01-13T06:21:45.084Z,0
2017-01-13T06:22:55.823Z,0
2017-01-13T06:24:06.551Z,0
2017-01-13T06:25:17.276Z,0
2017-01-13T06:26:28.014Z,0
2017-01-13T06:27:38.742Z,0
2017-01-13T06:28:49.485Z,0
2017-01-13T06:30:00.232Z,0
2017-01-13T06:31:10.949Z,0
2017-01-13T06:32:21.645Z,0
2017-01-13T06:33:32.365Z,0
2017-01-13T06:34:43.067Z,0
2017-01-13T06:35:53.778Z,0
2017-01-13T06:37:04.483Z,4
2017-01-13T06:38:15.203Z,4
2017-01-13T06:39:25.945Z,4
2017-01-13T06:40:36.669Z,4
2017-01-13T06:41:47.414Z,4
2017-01-13T06:42:58.138Z,4
2017-01-13T06:44:08.878Z,4
2017-01-13T06:45:19.607Z,4
2017-01-13T06:46:30.345Z,4
2017-01-13T06:47:41.043Z,4
2017-01-13T06:48:51.762Z,4
2017-01-13T06:50:02.510Z,8
2017-01-13T06:51:13.229Z,8
2017-01-13T06:52:23.951Z,12
2017-01-13T06:53:34.652Z,12
2017-01-13T06:54:45.367Z,16
2017-01-13T06:55:56.088Z,16
2017-01-13T06:57:06.812Z,20
2017-01-13T06:58:17.536Z,20
2017-01-13T06:59:28.281Z,32
2017-01-13T07:00:39.022Z,32
2017-01-13T07:01:49.746Z,40
2017-01-13T07:03:00.507Z,44
2017-01-13T07:04:11.211Z,52
2017-01-13T07:05:21.931Z,60
2017-01-13T07:06:32.645Z,68
2017-01-13T07:07:43.378Z,84
2017-01-13T07:08:54.119Z,88
2017-01-13T07:10:04.822Z,100
2017-01-13T07:11:15.536Z,108
2017-01-13T07:12:26.261Z,128
2017-01-13T07:13:36.979Z,128
2017-01-13T07:14:47.699Z,124
2017-01-13T07:15:58.398Z,148
2017-01-13T07:17:09.119Z,128
2017-01-13T07:18:19.862Z,176
2017-01-13T07:19:30.583Z,156
2017-01-13T07:20:41.304Z,172
2017-01-13T07:21:52.000Z,168
2017-01-13T07:23:03.119Z,192
2017-01-13T07:24:13.846Z,200
2017-01-13T07:25:24.538Z,220
2017-01-13T07:26:35.259Z,236
2017-01-13T07:27:45.981Z,264
2017-01-13T07:28:56.701Z,316
2017-01-13T07:30:07.406Z,304
2017-01-13T07:31:18.119Z,364
2017-01-13T07:32:28.823Z,352
2017-01-13T07:33:39.610Z,360
2017-01-13T07:34:50.324Z,332
2017-01-13T07:36:01.056Z,404
2017-01-13T07:37:11.803Z,540
2017-01-13T07:38:22.548Z,512
2017-01-13T07:39:33.259Z,544
2017-01-13T07:40:44.016Z,568
2017-01-13T07:41:54.737Z,612
2017-01-13T07:43:05.472Z,632
2017-01-13T07:44:16.219Z,664
2017-01-13T07:45:26.992Z,824
2017-01-13T07:46:38.101Z,924
2017-01-13T07:47:49.213Z,932
2017-01-13T07:48:59.938Z,968
2017-01-13T07:50:10.684Z,1080
2017-01-13T07:51:21.397Z,1340
2017-01-13T07:52:32.123Z,1264
2017-01-13T07:53:42.872Z,1316
2017-01-13T07:54:53.606Z,1228
2017-01-13T07:56:04.381Z,1148
2017-01-13T07:57:15.109Z,1124
2017-01-13T07:58:25.880Z,1088
2017-01-13T07:59:36.624Z,1016
2017-01-13T08:00:47.354Z,816
2017-01-13T08:01:58.083Z,896
2017-01-13T08:03:08.787Z,836
2017-01-13T08:04:19.554Z,956
2017-01-13T08:05:30.282Z,1004
2017-01-13T08:06:41.028Z,1096
2017-01-13T08:07:51.750Z,1276
2017-01-13T08:09:02.475Z,1564
2017-01-13T08:10:13.216Z,1616
2017-01-13T08:11:23.951Z,2244
2017-01-13T08:12:34.690Z,2640
2017-01-13T08:13:45.419Z,2888
2017-01-13T08:14:56.150Z,2892
2017-01-13T08:16:07.269Z,2596
2017-01-13T08:17:18.018Z,2376
2017-01-13T08:18:28.740Z,2160
2017-01-13T08:19:39.462Z,1844
2017-01-13T08:20:50.177Z,1912
2017-01-13T08:22:00.899Z,1920
2017-01-13T08:23:11.641Z,1964
2017-01-13T08:24:22.341Z,1876
2017-01-13T08:25:33.080Z,1856
2017-01-13T08:26:43.784Z,2156
2017-01-13T08:27:54.511Z,2416
2017-01-13T08:29:05.255Z,2332
2017-01-13T08:30:15.988Z,3116
2017-01-13T08:31:26.746Z,2704
2017-01-13T08:32:37.488Z,3084
2017-01-13T08:33:48.190Z,3288
2017-01-13T08:34:58.949Z,3240
2017-01-13T08:36:09.677Z,3764
2017-01-13T08:37:20.373Z,3064
2017-01-13T08:38:31.101Z,3036
2017-01-13T08:39:41.833Z,2884
2017-01-13T08:40:52.540Z,2920
2017-01-13T08:42:03.261Z,2812
2017-01-13T08:43:13.995Z,3064
2017-01-13T08:44:24.727Z,2708
2017-01-13T08:45:35.438Z,2892
2017-01-13T08:46:46.192Z,2308
2017-01-13T08:47:56.912Z,2320
2017-01-13T08:49:07.654Z,2148
2017-01-13T08:50:18.399Z,1748
2017-01-13T08:51:29.154Z,2012
2017-01-13T08:52:39.876Z,1580
2017-01-13T08:53:50.644Z,1504
2017-01-13T08:55:01.366Z,1248
2017-01-13T08:56:12.093Z,1396
2017-01-13T08:57:22.831Z,1472
2017-01-13T08:58:33.535Z,1456
2017-01-13T08:59:44.650Z,1476
2017-01-13T09:00:55.375Z,1308
2017-01-13T09:02:06.118Z,1472
2017-01-13T09:03:16.877Z,1440
2017-01-13T09:04:27.607Z,1432
2017-01-13T09:05:38.323Z,1720
2017-01-13T09:06:49.076Z,1868
2017-01-13T09:07:59.821Z,1848
2017-01-13T09:09:10.541Z,1792
2017-01-13T09:10:21.262Z,1664
2017-01-13T09:11:31.992Z,1732
2017-01-13T09:12:42.709Z,1944
2017-01-13T09:13:53.430Z,2224
2017-01-13T09:15:04.188Z,2652
2017-01-13T09:16:14.921Z,2668
2017-01-13T09:17:25.648Z,2184
2017-01-13T09:18:36.388Z,1860
2017-01-13T09:19:47.514Z,2068
2017-01-13T09:20:58.251Z,2216
2017-01-13T09:22:08.972Z,2340
2017-01-13T09:23:19.696Z,2624
2017-01-13T09:24:30.443Z,2740
2017-01-13T09:25:41.185Z,2728
2017-01-13T09:26:51.905Z,2784
2017-01-13T09:28:02.628Z,3036
2017-01-13T09:29:13.341Z,3092
2017-01-13T09:30:24.099Z,3372
2017-01-13T09:31:34.840Z,3168
2017-01-13T09:32:45.562Z,3620
2017-01-13T09:33:56.677Z,3392
2017-01-13T09:35:07.803Z,3104
2017-01-13T09:36:18.524Z,2584
2017-01-13T09:37:29.252Z,3052
2017-01-13T09:38:40.366Z,2672
2017-01-13T09:39:51.087Z,2640
2017-01-13T09:41:01.826Z,2476
2017-01-13T09:42:12.939Z,2452
2017-01-13T09:43:23.650Z,2296
2017-01-13T09:44:34.374Z,2232
2017-01-13T09:45:45.092Z,2016
2017-01-13T09:46:55.815Z,2012
2017-01-13T09:48:06.534Z,2048
2017-01-13T09:49:17.233Z,2076
2017-01-13T09:50:27.983Z,1784
2017-01-13T09:51:38.740Z,2084
2017-01-13T09:52:49.471Z,1996
2017-01-13T09:54:00.182Z,2040
2017-01-13T09:55:10.885Z,1800
2017-01-13T09:56:21.612Z,1776
2017-01-13T09:57:32.354Z,1696
2017-01-13T09:58:43.094Z,1736
2017-01-13T09:59:53.795Z,1560
2017-01-13T10:01:04.515Z,1688
2017-01-13T10:02:15.265Z,1720
2017-01-13T10:03:25.986Z,2052
2017-01-13T10:04:36.728Z,2228
2017-01-13T10:05:47.449Z,2708
2017-01-13T10:06:58.166Z,2792
2017-01-13T10:08:09.291Z,3032
2017-01-13T10:09:20.017Z,3356
2017-01-13T10:10:30.767Z,3412
2017-01-13T10:11:41.525Z,3408
2017-01-13T10:12:52.226Z,3544
2017-01-13T10:14:02.963Z,3424
2017-01-13T10:15:14.070Z,3180
2017-01-13T10:16:24.820Z,3088
2017-01-13T10:17:35.580Z,3396
2017-01-13T10:18:46.334Z,3416
2017-01-13T10:19:57.075Z,3028
2017-01-13T10:21:07.800Z,2732
2017-01-13T10:22:18.546Z,3028
2017-01-13T10:23:29.284Z,2688
2017-01-13T10:24:39.992Z,2696
2017-01-13T10:25:50.722Z,2904
2017-01-13T10:27:01.425Z,3240
2017-01-13T10:28:12.149Z,3472
2017-01-13T10:29:22.897Z,3536
2017-01-13T10:30:33.618Z,3964
2017-01-13T10:31:44.339Z,4040
2017-01-13T10:32:55.064Z,4612
2017-01-13T10:34:05.800Z,4484
2017-01-13T10:35:16.496Z,4572
2017-01-13T10:36:27.217Z,4676
2017-01-13T10:37:37.942Z,4972
2017-01-13T10:38:48.660Z,5184
2017-01-13T10:39:59.376Z,5292
2017-01-13T10:41:10.100Z,5096
2017-01-13T10:42:20.802Z,5440
2017-01-13T10:43:31.547Z,5468
2017-01-13T10:44:42.269Z,5496
2017-01-13T10:45:52.969Z,6404
2017-01-13T10:47:03.706Z,5572
2017-01-13T10:48:14.404Z,6444
2017-01-13T10:49:25.126Z,6516
2017-01-13T10:50:35.875Z,6256
2017-01-13T10:51:46.615Z,7064
2017-01-13T10:52:57.336Z,7248
2017-01-13T10:54:08.082Z,6620
2017-01-13T10:55:18.803Z,6664
2017-01-13T10:56:29.530Z,6308
2017-01-13T10:57:40.287Z,5580
2017-01-13T10:58:50.997Z,6580
2017-01-13T11:00:01.741Z,6100
2017-01-13T11:01:12.485Z,6196
2017-01-13T11:02:23.207Z,6692
2017-01-13T11:03:33.970Z,6448
2017-01-13T11:04:44.713Z,5928
2017-01-13T11:05:55.445Z,6668
2017-01-13T11:07:06.167Z,6260
2017-01-13T11:08:16.888Z,6148
2017-01-13T11:09:27.632Z,6276
2017-01-13T11:10:38.330Z,5972
2017-01-13T11:11:49.092Z,6416
2017-01-13T11:12:59.818Z,6200
2017-01-13T11:14:10.563Z,6140
2017-01-13T11:15:21.263Z,7000
2017-01-13T11:16:32.033Z,6900
2017-01-13T11:17:42.780Z,7136
2017-01-13T11:18:53.501Z,5796
2017-01-13T11:20:04.244Z,5580
2017-01-13T11:21:15.765Z,5488
2017-01-13T11:22:26.486Z,5556
2017-01-13T11:23:37.207Z,5232
2017-01-13T11:24:47.945Z,5304
2017-01-13T11:25:58.671Z,5008
2017-01-13T11:27:09.395Z,4820
2017-01-13T11:28:20.117Z,5160
2017-01-13T11:29:30.879Z,4700
2017-01-13T11:30:41.636Z,5160
2017-01-13T11:31:52.382Z,5204
2017-01-13T11:33:03.101Z,5504
2017-01-13T11:34:13.813Z,5308
2017-01-13T11:35:24.542Z,5620
2017-01-13T11:36:35.264Z,5860
2017-01-13T11:37:45.988Z,5264
2017-01-13T11:38:56.730Z,5312
2017-01-13T11:40:07.432Z,5940
2017-01-13T11:41:18.164Z,5380
2017-01-13T11:42:28.871Z,5088
2017-01-13T11:43:39.607Z,4676
2017-01-13T11:44:50.338Z,5304
2017-01-13T11:46:01.081Z,5656
2017-01-13T11:47:11.812Z,6176
2017-01-13T11:48:22.552Z,6432
2017-01-13T11:49:33.297Z,5856
2017-01-13T11:50:44.042Z,5708
2017-01-13T11:51:54.761Z,4780
2017-01-13T11:53:05.461Z,5440
2017-01-13T11:54:16.234Z,5476
2017-01-13T11:55:26.978Z,5596
2017-01-13T11:56:37.725Z,5996
2017-01-13T11:57:48.470Z,5572
2017-01-13T11:58:59.215Z,4996
2017-01-13T12:00:09.958Z,5764
2017-01-13T12:01:20.684Z,5988
2017-01-13T12:02:31.418Z,5432
2017-01-13T12:03:42.171Z,4992
2017-01-13T12:04:52.924Z,4848
2017-01-13T12:06:03.651Z,4976
2017-01-13T12:07:14.393Z,4772
2017-01-13T12:08:25.109Z,5368
2017-01-13T12:09:35.851Z,5352
2017-01-13T12:10:46.573Z,5072
2017-01-13T12:11:57.272Z,4796
2017-01-13T12:13:07.968Z,3752
2017-01-13T12:14:18.687Z,3172
2017-01-13T12:15:29.399Z,2720
2017-01-13T12:16:40.135Z,2316
2017-01-13T12:17:51.268Z,2364
2017-01-13T12:19:02.377Z,2420
2017-01-13T12:20:13.115Z,2764
2017-01-13T12:21:23.838Z,2640
2017-01-13T12:22:34.562Z,3720
2017-01-13T12:23:45.282Z,4048
2017-01-13T12:24:56.041Z,3780
2017-01-13T12:26:06.775Z,4244
2017-01-13T12:27:17.494Z,4284
2017-01-13T12:28:28.237Z,4628
2017-01-13T12:29:38.938Z,4220
2017-01-13T12:30:49.679Z,4268
2017-01-13T12:32:00.408Z,4104
2017-01-13T12:33:11.180Z,4024
2017-01-13T12:34:21.893Z,3932
2017-01-13T12:35:32.606Z,4692
2017-01-13T12:36:43.335Z,4364
2017-01-13T12:37:54.065Z,4176
2017-01-13T12:39:04.798Z,4132
2017-01-13T12:40:15.926Z,3852
2017-01-13T12:41:26.621Z,3244
2017-01-13T12:42:37.350Z,3368
2017-01-13T12:43:48.082Z,3092
2017-01-13T12:44:58.788Z,2892
2017-01-13T12:46:09.537Z,3072
2017-01-13T12:47:20.266Z,3420
2017-01-13T12:48:30.970Z,3140
2017-01-13T12:49:41.700Z,3408
2017-01-13T12:50:52.433Z,3228
2017-01-13T12:52:03.154Z,3372
2017-01-13T12:53:13.879Z,3364
2017-01-13T12:54:24.629Z,3016
2017-01-13T12:55:35.374Z,3368
2017-01-13T12:56:46.094Z,3008
2017-01-13T12:57:56.814Z,2880
2017-01-13T12:59:07.543Z,3012
2017-01-13T13:00:18.289Z,2988
2017-01-13T13:01:29.047Z,3068
2017-01-13T13:02:39.772Z,3008
2017-01-13T13:03:50.878Z,2676
2017-01-13T13:05:01.636Z,2788
2017-01-13T13:06:12.364Z,2844
2017-01-13T13:07:23.116Z,3116
2017-01-13T13:08:33.879Z,3148
2017-01-13T13:09:44.627Z,2936
2017-01-13T13:10:55.353Z,3448
2017-01-13T13:12:06.094Z,3336
2017-01-13T13:13:16.811Z,3504
2017-01-13T13:14:27.554Z,3524
2017-01-13T13:15:38.282Z,3828
2017-01-13T13:16:49.005Z,3856
2017-01-13T13:17:59.724Z,4140
2017-01-13T13:19:10.487Z,3620
2017-01-13T13:20:21.587Z,3544
2017-01-13T13:21:32.311Z,3592
2017-01-13T13:22:43.030Z,3464
2017-01-13T13:23:53.776Z,2968
2017-01-13T13:25:04.499Z,2820
2017-01-13T13:26:15.221Z,2608
2017-01-13T13:27:25.968Z,2668
2017-01-13T13:28:36.711Z,2476
2017-01-13T13:29:47.476Z,2072
2017-01-13T13:30:58.181Z,2244
2017-01-13T13:32:08.904Z,2448
2017-01-13T13:33:19.618Z,1852
2017-01-13T13:34:30.349Z,1840
2017-01-13T13:35:41.070Z,1684
2017-01-13T13:36:51.807Z,1728
2017-01-13T13:38:02.532Z,1724
2017-01-13T13:39:13.261Z,1972
2017-01-13T13:40:24.366Z,1676
2017-01-13T13:41:35.065Z,1608
2017-01-13T13:42:46.186Z,1636
2017-01-13T13:43:56.908Z,1808
2017-01-13T13:45:07.628Z,1672
2017-01-13T13:46:18.352Z,1464
2017-01-13T13:47:29.115Z,1692
2017-01-13T13:48:39.818Z,1840
2017-01-13T13:49:50.514Z,1968
2017-01-13T13:51:01.208Z,1748
2017-01-13T13:52:11.911Z,1444
2017-01-13T13:53:22.656Z,1664
2017-01-13T13:54:33.376Z,1424
2017-01-13T13:55:44.116Z,1232
2017-01-13T13:56:54.839Z,1180
2017-01-13T13:58:05.587Z,1164
2017-01-13T13:59:16.303Z,1260
2017-01-13T14:00:27.020Z,1244
2017-01-13T14:01:37.737Z,1120
2017-01-13T14:02:48.483Z,1184
2017-01-13T14:03:59.192Z,1200
2017-01-13T14:05:09.934Z,1200
2017-01-13T14:06:20.700Z,1192
2017-01-13T14:07:31.443Z,1180
2017-01-13T14:08:42.149Z,1012
2017-01-13T14:09:52.872Z,1012
2017-01-13T14:11:03.591Z,988
2017-01-13T14:12:14.284Z,972
2017-01-13T14:13:24.984Z,956
2017-01-13T14:14:35.751Z,948
2017-01-13T14:15:46.498Z,1056
2017-01-13T14:16:57.218Z,852
2017-01-13T14:18:07.943Z,964
2017-01-13T14:19:18.680Z,728
2017-01-13T14:20:29.406Z,712
2017-01-13T14:21:40.130Z,668
2017-01-13T14:22:50.865Z,676
2017-01-13T14:24:01.600Z,548
2017-01-13T14:25:12.341Z,548
2017-01-13T14:26:23.062Z,520
2017-01-13T14:27:33.786Z,520
2017-01-13T14:28:44.524Z,500
2017-01-13T14:29:55.232Z,480
2017-01-13T14:31:06.346Z,420
2017-01-13T14:32:17.064Z,416
2017-01-13T14:33:27.812Z,456
2017-01-13T14:34:38.551Z,492
2017-01-13T14:35:49.258Z,400
2017-01-13T14:37:00.030Z,368
2017-01-13T14:38:10.764Z,360
2017-01-13T14:39:21.500Z,384
2017-01-13T14:40:32.239Z,388
2017-01-13T14:41:42.993Z,344
2017-01-13T14:42:53.734Z,320
2017-01-13T14:44:04.462Z,308
2017-01-13T14:45:15.198Z,276
2017-01-13T14:46:25.921Z,304
2017-01-13T14:47:36.686Z,276
2017-01-13T14:48:47.392Z,280
2017-01-13T14:49:58.107Z,300
2017-01-13T14:51:08.828Z,316
2017-01-13T14:52:19.541Z,264
2017-01-13T14:53:30.270Z,244
2017-01-13T14:54:40.994Z,308
2017-01-13T14:55:51.716Z,284
2017-01-13T14:57:02.462Z,220
2017-01-13T14:58:13.200Z,200
2017-01-13T14:59:23.904Z,196
2017-01-13T15:00:34.631Z,188
2017-01-13T15:01:45.363Z,184
2017-01-13T15:02:56.088Z,176
2017-01-13T15:04:06.791Z,192
2017-01-13T15:05:17.545Z,172
2017-01-13T15:06:28.297Z,136
2017-01-13T15:07:39.006Z,124
2017-01-13T15:08:49.789Z,112
2017-01-13T15:10:00.889Z,112
2017-01-13T15:11:11.593Z,96
2017-01-13T15:12:22.356Z,96
2017-01-13T15:13:33.080Z,88
2017-01-13T15:14:43.799Z,60
2017-01-13T15:15:54.899Z,56
2017-01-13T15:17:05.643Z,48
2017-01-13T15:18:16.353Z,48
2017-01-13T15:19:27.129Z,40
2017-01-13T15:20:37.853Z,36
2017-01-13T15:21:48.945Z,36
2017-01-13T15:22:59.673Z,36
2017-01-13T15:24:10.396Z,32
2017-01-13T15:25:21.142Z,32
2017-01-13T15:26:31.861Z,32
2017-01-13T15:27:42.600Z,28
2017-01-13T15:28:53.329Z,28
2017-01-13T15:30:04.071Z,24
2017-01-13T15:31:14.796Z,20
2017-01-13T15:32:25.539Z,16
2017-01-13T15:33:36.277Z,20
2017-01-13T15:34:47.005Z,16
2017-01-13T15:35:57.727Z,12
2017-01-13T15:37:08.874Z,12
2017-01-13T15:38:19.594Z,12
2017-01-13T15:39:30.314Z,8
2017-01-13T15:40:41.038Z,8
2017-01-13T15:41:51.763Z,8
2017-01-13T15:43:02.460Z,8
2017-01-13T15:44:13.200Z,8
2017-01-13T15:45:23.920Z,4
2017-01-13T15:46:34.620Z,4
2017-01-13T15:47:45.341Z,4
2017-01-13T15:48:56.110Z,4
2017-01-13T15:50:06.834Z,0
2017-01-13T15:51:17.549Z,0
2017-01-13T15:52:28.288Z,4
2017-01-13T15:53:39.021Z,4
2017-01-13T15:54:49.746Z,0
2017-01-13T15:56:00.466Z,0
2017-01-13T15:57:11.183Z,0
2017-01-13T15:58:21.918Z,0
2017-01-13T15:59:32.672Z,0
2017-01-13T16:00:43.800Z,0
2017-01-13T16:01:54.514Z,0
2017-01-13T16:03:05.235Z,0
2017-01-13T16:04:15.956Z,0
2017-01-13T16:05:26.678Z,0
2017-01-13T16:06:37.401Z,0
2017-01-13T16:07:48.130Z,0
2017-01-13T16:08:58.866Z,0
2017-01-13T16:10:09.593Z,0
2017-01-13T16:11:20.335Z,0
2017-01-13T16:12:31.070Z,0
2017-01-13T16:13:41.799Z,0
2017-01-13T16:14:52.524Z,0
2017-01-13T16:16:03.234Z,0
2017-01-13T16:17:13.987Z,0
2017-01-13T16:18:24.711Z,0
2017-01-13T16:19:35.511Z,0
2017-01-13T16:20:46.235Z,0
2017-01-13T16:21:56.950Z,0
2017-01-13T16:23:07.685Z,0
2017-01-13T16:24:18.397Z,0
2017-01-13T16:25:29.134Z,0
2017-01-13T16:26:39.851Z,0
2017-01-13T16:27:50.579Z,0
2017-01-13T16:29:01.300Z,0
2017-01-13T16:30:12.043Z,0
2017-01-13T16:31:22.769Z,0
2017-01-13T16:32:33.460Z,0
2017-01-13T16:33:44.181Z,0
2017-01-13T16:34:54.902Z,0